Bill's Weather Station Status
Memory
total used free shared buff/cache available
Mem: 3918876 613724 115188 2788 3189964 3035180
Swap: 0 0 0
Uptime
01:18:47 up 462 days, 13:04, 0 users, load average: 1.50, 0.64, 0.34
Temperature Database
meteo table size: 880083 rows
Last 50 temperature measurements:
2026-05-09 01:15:05: Inside: 65.8, Outside: 55.4, Pressure: 29.935, Humidity: 49, Illumination: 0.00
2026-05-09 01:10:05: Inside: 65.8, Outside: 55.4, Pressure: 29.938, Humidity: 49, Illumination: 0.00
2026-05-09 01:05:06: Inside: 65.8, Outside: 55.2, Pressure: 29.935, Humidity: 49, Illumination: 0.00
2026-05-09 01:00:06: Inside: 65.8, Outside: 54.8, Pressure: 29.934, Humidity: 49, Illumination: 0.00
2026-05-09 00:55:06: Inside: 65.9, Outside: 54.7, Pressure: 29.937, Humidity: 49, Illumination: 0.00
2026-05-09 00:50:06: Inside: 65.9, Outside: 54.3, Pressure: 29.937, Humidity: 49, Illumination: 0.00
2026-05-09 00:45:06: Inside: 65.9, Outside: 53.9, Pressure: 29.936, Humidity: 49, Illumination: 0.00
2026-05-09 00:40:06: Inside: 65.9, Outside: 53.7, Pressure: 29.935, Humidity: 49, Illumination: 0.00
2026-05-09 00:35:06: Inside: 65.9, Outside: 53.9, Pressure: 29.935, Humidity: 49, Illumination: 0.00
2026-05-09 00:30:06: Inside: 65.9, Outside: 53.9, Pressure: 29.931, Humidity: 49, Illumination: 0.00
2026-05-09 00:25:06: Inside: 65.9, Outside: 53.9, Pressure: 29.930, Humidity: 49, Illumination: 0.00
2026-05-09 00:20:06: Inside: 66.0, Outside: 54.2, Pressure: 29.933, Humidity: 49, Illumination: 0.00
2026-05-09 00:15:05: Inside: 66.0, Outside: 54.5, Pressure: 29.932, Humidity: 49, Illumination: 0.00
2026-05-09 00:10:06: Inside: 66.0, Outside: 54.4, Pressure: 29.930, Humidity: 49, Illumination: 0.00
2026-05-09 00:05:06: Inside: 66.0, Outside: 54.4, Pressure: 29.928, Humidity: 49, Illumination: 0.00
2026-05-09 00:00:06: Inside: 66.0, Outside: 54.8, Pressure: 29.930, Humidity: 49, Illumination: 0.00
2026-05-08 23:55:05: Inside: 66.0, Outside: 55.1, Pressure: 29.926, Humidity: 49, Illumination: 0.00
2026-05-08 23:50:05: Inside: 66.1, Outside: 55.2, Pressure: 29.927, Humidity: 49, Illumination: 0.00
2026-05-08 23:45:05: Inside: 66.1, Outside: 55.2, Pressure: 29.930, Humidity: 49, Illumination: 0.00
2026-05-08 23:40:05: Inside: 66.0, Outside: 55.1, Pressure: 29.927, Humidity: 49, Illumination: 0.00
2026-05-08 23:35:06: Inside: 66.1, Outside: 55.2, Pressure: 29.927, Humidity: 49, Illumination: 0.00
2026-05-08 23:30:05: Inside: 66.1, Outside: 55.1, Pressure: 29.927, Humidity: 49, Illumination: 0.00
2026-05-08 23:25:05: Inside: 66.1, Outside: 55.1, Pressure: 29.926, Humidity: 49, Illumination: 0.00
2026-05-08 23:20:05: Inside: 66.2, Outside: 55.1, Pressure: 29.926, Humidity: 49, Illumination: 0.00
2026-05-08 23:15:05: Inside: 66.1, Outside: 54.7, Pressure: 29.925, Humidity: 49, Illumination: 0.00
2026-05-08 23:10:05: Inside: 66.2, Outside: 54.7, Pressure: 29.929, Humidity: 49, Illumination: 0.00
2026-05-08 23:05:05: Inside: 66.2, Outside: 55.0, Pressure: 29.935, Humidity: 49, Illumination: 0.00
2026-05-08 23:00:05: Inside: 66.2, Outside: 55.2, Pressure: 29.932, Humidity: 49, Illumination: 0.00
2026-05-08 22:55:05: Inside: 66.2, Outside: 55.2, Pressure: 29.933, Humidity: 49, Illumination: 0.00
2026-05-08 22:50:05: Inside: 66.3, Outside: 55.3, Pressure: 29.932, Humidity: 49, Illumination: 0.00
2026-05-08 22:45:05: Inside: 66.3, Outside: 55.5, Pressure: 29.932, Humidity: 49, Illumination: 0.00
2026-05-08 22:40:06: Inside: 66.3, Outside: 55.5, Pressure: 29.934, Humidity: 49, Illumination: 0.00
2026-05-08 22:35:06: Inside: 66.3, Outside: 55.5, Pressure: 29.931, Humidity: 49, Illumination: 0.00
2026-05-08 22:30:06: Inside: 66.3, Outside: 55.9, Pressure: 29.933, Humidity: 49, Illumination: 0.00
2026-05-08 22:25:06: Inside: 66.3, Outside: 55.7, Pressure: 29.935, Humidity: 49, Illumination: 0.00
2026-05-08 22:20:06: Inside: 66.3, Outside: 55.6, Pressure: 29.938, Humidity: 49, Illumination: 0.00
2026-05-08 22:15:05: Inside: 66.4, Outside: 55.4, Pressure: 29.934, Humidity: 49, Illumination: 0.00
2026-05-08 22:10:05: Inside: 66.4, Outside: 55.3, Pressure: 29.931, Humidity: 49, Illumination: 0.00
2026-05-08 22:05:05: Inside: 66.4, Outside: 55.4, Pressure: 29.936, Humidity: 49, Illumination: 0.00
2026-05-08 22:00:05: Inside: 66.4, Outside: 55.5, Pressure: 29.934, Humidity: 49, Illumination: 0.00
2026-05-08 21:55:05: Inside: 66.5, Outside: 55.4, Pressure: 29.933, Humidity: 49, Illumination: 0.00
2026-05-08 21:50:05: Inside: 66.5, Outside: 55.4, Pressure: 29.931, Humidity: 49, Illumination: 0.00
2026-05-08 21:45:05: Inside: 66.4, Outside: 55.5, Pressure: 29.933, Humidity: 49, Illumination: 0.00
2026-05-08 21:40:05: Inside: 66.5, Outside: 55.5, Pressure: 29.932, Humidity: 49, Illumination: 0.00
2026-05-08 21:35:05: Inside: 66.5, Outside: 55.3, Pressure: 29.931, Humidity: 49, Illumination: 0.00
2026-05-08 21:30:05: Inside: 66.5, Outside: 55.3, Pressure: 29.929, Humidity: 49, Illumination: 0.00
2026-05-08 21:25:05: Inside: 66.5, Outside: 55.2, Pressure: 29.928, Humidity: 48, Illumination: 0.00
2026-05-08 21:20:05: Inside: 66.5, Outside: 55.3, Pressure: 29.925, Humidity: 49, Illumination: 0.00
2026-05-08 21:15:05: Inside: 66.7, Outside: 55.2, Pressure: 29.922, Humidity: 48, Illumination: 0.00
2026-05-08 21:10:05: Inside: 66.7, Outside: 55.2, Pressure: 29.919, Humidity: 48, Illumination: 0.00
Gas Readings Database
gas table size: 254368 rows
Last 50 gas reading changes:
2026-05-09 00:55:46: Reading: 101856
2026-05-09 00:53:16: Reading: 101854, ΔT: 2 min, ΔR: 2 cf
2026-05-08 23:36:30: Reading: 101852, ΔT: 76 min, ΔR: 2 cf
2026-05-08 23:32:31: Reading: 101850, ΔT: 3 min, ΔR: 2 cf
2026-05-08 22:05:01: Reading: 101848, ΔT: 87 min, ΔR: 2 cf
2026-05-08 22:02:45: Reading: 101846, ΔT: 2 min, ΔR: 2 cf
2026-05-08 22:00:46: Reading: 101844, ΔT: 1 min, ΔR: 2 cf
2026-05-08 20:29:02: Reading: 101842, ΔT: 91 min, ΔR: 2 cf
2026-05-08 20:25:01: Reading: 101838, ΔT: 4 min, ΔR: 4 cf
2026-05-08 18:49:02: Reading: 101836, ΔT: 95 min, ΔR: 2 cf
2026-05-08 18:46:02: Reading: 101832, ΔT: 3 min, ΔR: 4 cf
2026-05-08 17:00:47: Reading: 101830, ΔT: 105 min, ΔR: 2 cf
2026-05-08 16:58:17: Reading: 101828, ΔT: 2 min, ΔR: 2 cf
2026-05-08 16:57:16: Reading: 101826, ΔT: 1 min, ΔR: 2 cf
2026-05-08 16:56:32: Reading: 101824, ΔT: 0 min, ΔR: 2 cf
2026-05-08 16:53:32: Reading: 101818, ΔT: 3 min, ΔR: 6 cf
2026-05-08 15:25:02: Reading: 101816, ΔT: 88 min, ΔR: 2 cf
2026-05-08 15:22:46: Reading: 101814, ΔT: 2 min, ΔR: 2 cf
2026-05-08 15:21:31: Reading: 101812, ΔT: 1 min, ΔR: 2 cf
2026-05-08 14:14:01: Reading: 101810, ΔT: 67 min, ΔR: 2 cf
2026-05-08 13:11:31: Reading: 101808, ΔT: 62 min, ΔR: 2 cf
2026-05-08 13:07:32: Reading: 101804, ΔT: 3 min, ΔR: 4 cf
2026-05-08 11:58:32: Reading: 101802, ΔT: 69 min, ΔR: 2 cf
2026-05-08 11:57:31: Reading: 101800, ΔT: 1 min, ΔR: 2 cf
2026-05-08 11:56:31: Reading: 101798, ΔT: 1 min, ΔR: 2 cf
2026-05-08 10:47:47: Reading: 101796, ΔT: 68 min, ΔR: 2 cf
2026-05-08 10:42:17: Reading: 101794, ΔT: 5 min, ΔR: 2 cf
2026-05-08 10:41:31: Reading: 101792, ΔT: 0 min, ΔR: 2 cf
2026-05-08 09:47:32: Reading: 101788, ΔT: 53 min, ΔR: 4 cf
2026-05-08 09:45:17: Reading: 101786, ΔT: 2 min, ΔR: 2 cf
2026-05-08 08:49:02: Reading: 101784, ΔT: 56 min, ΔR: 2 cf
2026-05-08 08:42:47: Reading: 101782, ΔT: 6 min, ΔR: 2 cf
2026-05-08 08:20:02: Reading: 101780, ΔT: 22 min, ΔR: 2 cf
2026-05-08 07:26:32: Reading: 101778, ΔT: 53 min, ΔR: 2 cf
2026-05-08 07:25:47: Reading: 101776, ΔT: 0 min, ΔR: 2 cf
2026-05-08 06:10:46: Reading: 101774, ΔT: 75 min, ΔR: 2 cf
2026-05-08 06:08:47: Reading: 101772, ΔT: 1 min, ΔR: 2 cf
2026-05-08 04:53:17: Reading: 101770, ΔT: 75 min, ΔR: 2 cf
2026-05-08 04:51:32: Reading: 101768, ΔT: 1 min, ΔR: 2 cf
2026-05-08 03:36:32: Reading: 101766, ΔT: 75 min, ΔR: 2 cf
2026-05-08 02:34:01: Reading: 101762, ΔT: 62 min, ΔR: 4 cf
2026-05-08 02:09:02: Reading: 101760, ΔT: 24 min, ΔR: 2 cf
2026-05-08 02:05:02: Reading: 101758, ΔT: 4 min, ΔR: 2 cf
2026-05-08 00:58:16: Reading: 101756, ΔT: 66 min, ΔR: 2 cf
2026-05-08 00:55:46: Reading: 101754, ΔT: 2 min, ΔR: 2 cf
2026-05-07 23:35:02: Reading: 101752, ΔT: 80 min, ΔR: 2 cf
2026-05-07 22:05:17: Reading: 101748, ΔT: 89 min, ΔR: 4 cf
2026-05-07 22:03:17: Reading: 101746, ΔT: 2 min, ΔR: 2 cf
2026-05-07 22:01:17: Reading: 101744, ΔT: 2 min, ΔR: 2 cf
2026-05-07 20:31:32: Reading: 101742, ΔT: 89 min, ΔR: 2 cf